Time;durP1;ratioP1;P1;durP2;ratioP2;P2;SDS_P1;SDS_P2;PMS_P1;PMS_P2;Temp;Humidity;BMP_temperature;BMP_pressure;BME280_temperature;BME280_humidity;BME280_pressure;Samples;Min_cycle;Max_cycle;Signal;HPM_P1;HPM_P2
2022/05/06 00:00:14;;;;;;;2.40;1.50;;;13.60;94.70;;;;;;5051700;28;20495;-64
2022/05/06 00:02:41;;;;;;;2.53;1.83;;;13.60;94.70;;;;;;5050113;28;20495;-65
2022/05/06 00:05:11;;;;;;;3.20;1.87;;;13.60;94.70;;;;;;5051578;28;20450;-64
2022/05/06 00:07:39;;;;;;;3.40;1.97;;;13.60;95.00;;;;;;5051685;28;20449;-64
2022/05/06 00:10:09;;;;;;;3.10;2.33;;;13.60;95.10;;;;;;5053684;28;20436;-65
2022/05/06 00:12:37;;;;;;;3.60;1.97;;;13.50;95.20;;;;;;5054510;28;20444;-64
2022/05/06 00:15:08;;;;;;;3.10;2.20;;;13.50;95.00;;;;;;5055220;28;20494;-64
2022/05/06 00:17:36;;;;;;;2.60;2.10;;;13.50;95.00;;;;;;5054920;28;20432;-64
2022/05/06 00:20:04;;;;;;;3.77;2.60;;;13.50;95.00;;;;;;5055251;28;20484;-63
2022/05/06 00:22:31;;;;;;;2.40;1.50;;;13.50;94.90;;;;;;5054620;28;20799;-64
2022/05/06 00:24:59;;;;;;;2.50;1.50;;;13.40;95.00;;;;;;5055146;28;20467;-64
2022/05/06 00:27:27;;;;;;;3.30;1.87;;;13.40;95.20;;;;;;5054683;28;20864;-64
2022/05/06 00:29:54;;;;;;;2.67;1.70;;;13.40;95.50;;;;;;5054989;28;20445;-64
2022/05/06 00:32:21;;;;;;;2.83;1.93;;;13.40;95.50;;;;;;5054567;28;20943;-63
2022/05/06 00:34:48;;;;;;;3.50;2.47;;;13.30;95.30;;;;;;5054804;28;20445;-64
2022/05/06 00:37:15;;;;;;;2.67;1.83;;;13.30;95.50;;;;;;5054324;28;20548;-63
2022/05/06 00:39:42;;;;;;;2.60;2.03;;;13.30;95.60;;;;;;5054373;28;20484;-63
2022/05/06 00:42:11;;;;;;;2.60;1.80;;;13.20;95.70;;;;;;5054034;28;20498;-64
2022/05/06 00:44:39;;;;;;;3.75;1.85;;;13.20;95.70;;;;;;5054500;28;20443;-65
2022/05/06 00:47:07;;;;;;;2.38;1.70;;;13.20;95.80;;;;;;5054152;28;20271;-64
2022/05/06 00:49:35;;;;;;;2.90;2.20;;;13.20;96.10;;;;;;5054389;28;20572;-63
2022/05/06 00:52:04;;;;;;;2.67;1.73;;;13.20;96.40;;;;;;5053987;28;20940;-64
2022/05/06 00:54:33;;;;;;;3.47;2.03;;;13.30;96.30;;;;;;5054612;28;20439;-63
2022/05/06 00:57:01;;;;;;;2.47;1.60;;;13.30;95.80;;;;;;5053919;28;20448;-64
2022/05/06 00:59:29;;;;;;;4.40;2.13;;;13.20;95.90;;;;;;5053917;28;20480;-67
2022/05/06 01:01:58;;;;;;;3.03;2.37;;;13.20;96.10;;;;;;5053786;28;20520;-63
2022/05/06 01:04:25;;;;;;;3.27;2.60;;;13.20;96.40;;;;;;5054049;28;20437;-63
2022/05/06 01:06:53;;;;;;;4.50;2.90;;;13.20;96.10;;;;;;5053648;28;20512;-64
2022/05/06 01:09:20;;;;;;;4.20;3.50;;;13.20;96.20;;;;;;5053988;28;20437;-64
2022/05/06 01:11:47;;;;;;;4.00;2.70;;;13.20;96.50;;;;;;5053735;28;20183;-64
2022/05/06 01:14:33;;;;;;;4.03;3.38;;;13.20;96.50;;;;;;5053705;28;20465;-64
2022/05/06 01:17:00;;;;;;;2.97;2.20;;;13.10;96.40;;;;;;5054046;28;20664;-63
2022/05/06 01:19:28;;;;;;;6.40;3.83;;;13.10;96.50;;;;;;5053277;28;20490;-63
2022/05/06 01:21:56;;;;;;;3.13;2.37;;;13.20;96.40;;;;;;5053024;28;20444;-64
2022/05/06 01:24:23;;;;;;;4.60;3.20;;;13.20;96.10;;;;;;5053470;28;20480;-64
2022/05/06 01:26:59;;;;;;;6.97;4.53;;;13.20;96.30;;;;;;5053249;28;20441;-64
2022/05/06 01:29:29;;;;;;;6.60;4.03;;;13.20;96.60;;;;;;5053655;28;20471;-64
2022/05/06 01:31:56;;;;;;;4.80;3.63;;;13.20;96.40;;;;;;5053316;28;20445;-63
2022/05/06 01:34:29;;;;;;;3.77;2.90;;;13.20;96.60;;;;;;5053347;28;20918;-64
2022/05/06 01:37:02;;;;;;;4.00;3.20;;;13.20;96.50;;;;;;5053483;28;20521;-64
2022/05/06 01:39:31;;;;;;;4.10;2.50;;;13.20;96.40;;;;;;5053725;28;20484;-64
2022/05/06 01:42:07;;;;;;;3.40;2.80;;;13.20;96.50;;;;;;5053005;28;20483;-64
2022/05/06 01:44:38;;;;;;;3.77;2.73;;;13.20;96.30;;;;;;5053713;28;20491;-65
2022/05/06 01:47:11;;;;;;;4.60;2.83;;;13.20;96.50;;;;;;5052766;28;21036;-63
2022/05/06 01:49:40;;;;;;;3.90;2.90;;;13.20;96.60;;;;;;5053385;28;20449;-64
2022/05/06 01:52:12;;;;;;;4.10;2.73;;;13.10;96.70;;;;;;5052861;28;20469;-64
2022/05/06 01:54:39;;;;;;;3.83;2.72;;;13.10;96.80;;;;;;5053516;28;20437;-64
2022/05/06 01:57:07;;;;;;;3.20;2.30;;;13.10;96.90;;;;;;5052709;28;20206;-63
2022/05/06 01:59:34;;;;;;;3.03;2.30;;;13.10;96.90;;;;;;5052941;28;20484;-65
2022/05/06 02:02:01;;;;;;;4.00;2.73;;;13.10;96.90;;;;;;5052625;28;20190;-64
2022/05/06 02:07:17;;;;;;;3.37;2.77;;;13.10;97.00;;;;;;5052665;28;20444;-64
2022/05/06 02:09:44;;;;;;;3.77;3.30;;;13.10;97.00;;;;;;5052979;28;20795;-63
2022/05/06 02:12:12;;;;;;;4.13;2.60;;;13.10;97.00;;;;;;5052832;28;20444;-63
2022/05/06 02:14:39;;;;;;;5.73;2.90;;;13.10;97.20;;;;;;5052880;28;20764;-64
2022/05/06 02:17:07;;;;;;;3.33;2.80;;;13.10;97.10;;;;;;5052282;28;20627;-64
2022/05/06 02:19:34;;;;;;;3.90;2.83;;;13.10;97.10;;;;;;5052949;28;20489;-64
2022/05/06 02:22:01;;;;;;;3.40;2.60;;;13.10;97.20;;;;;;5052597;28;20491;-64
2022/05/06 02:24:32;;;;;;;3.37;2.70;;;13.10;97.20;;;;;;5052335;28;20448;-63
2022/05/06 02:26:59;;;;;;;3.70;3.20;;;13.10;97.20;;;;;;5052497;28;20451;-64
2022/05/06 02:29:27;;;;;;;3.27;2.47;;;13.10;97.20;;;;;;5052781;28;20441;-64
2022/05/06 02:34:39;;;;;;;3.50;2.78;;;13.10;97.30;;;;;;5052800;28;20520;-64
2022/05/06 02:37:06;;;;;;;3.83;3.20;;;13.10;97.30;;;;;;5051787;28;20236;-64
2022/05/06 02:39:34;;;;;;;5.40;3.40;;;13.10;97.40;;;;;;5051942;28;20484;-63
2022/05/06 02:42:02;;;;;;;4.73;3.80;;;13.10;97.10;;;;;;5052050;28;20528;-64
2022/05/06 02:44:29;;;;;;;4.73;3.47;;;13.10;97.10;;;;;;5051860;28;20447;-64
2022/05/06 02:46:57;;;;;;;4.00;2.87;;;13.10;97.10;;;;;;5051815;28;20982;-64
2022/05/06 02:49:24;;;;;;;4.13;3.50;;;13.00;97.10;;;;;;5052080;28;20425;-64
2022/05/06 02:51:51;;;;;;;3.37;3.07;;;13.00;97.20;;;;;;5052038;28;20449;-63
2022/05/06 02:54:21;;;;;;;4.37;3.17;;;13.00;97.30;;;;;;5051865;28;20440;-64
2022/05/06 02:56:51;;;;;;;4.07;3.10;;;13.00;97.00;;;;;;5051736;28;20949;-64
2022/05/06 02:59:18;;;;;;;3.50;2.90;;;13.00;97.20;;;;;;5051827;28;20441;-64
2022/05/06 03:01:45;;;;;;;4.10;3.22;;;13.00;97.20;;;;;;5051578;28;20441;-64
2022/05/06 03:04:13;;;;;;;6.95;3.22;;;12.90;97.10;;;;;;5051823;28;20339;-64
2022/05/06 03:06:44;;;;;;;4.93;2.85;;;12.90;97.10;;;;;;5051644;28;20187;-63
2022/05/06 03:09:12;;;;;;;3.30;3.00;;;12.90;97.10;;;;;;5052432;28;20190;-63
2022/05/06 03:11:39;;;;;;;3.83;3.00;;;12.90;96.70;;;;;;5051581;28;20437;-64
2022/05/06 03:14:10;;;;;;;11.13;4.07;;;12.80;96.70;;;;;;5052086;28;20251;-65
2022/05/06 03:16:38;;;;;;;3.93;2.90;;;12.70;96.60;;;;;;5051450;28;20218;-65
2022/05/06 03:19:05;;;;;;;4.82;4.20;;;12.70;96.70;;;;;;5052021;28;20919;-63
2022/05/06 03:21:32;;;;;;;4.60;3.70;;;12.70;97.00;;;;;;5051432;28;20295;-63
2022/05/06 03:24:00;;;;;;;6.10;4.00;;;12.70;96.70;;;;;;5051964;28;20190;-63
2022/05/06 03:26:28;;;;;;;6.40;4.30;;;12.60;96.80;;;;;;5051814;28;20493;-64
2022/05/06 03:28:57;;;;;;;7.50;5.03;;;12.60;96.90;;;;;;5051613;28;20695;-64
2022/05/06 03:31:27;;;;;;;10.00;5.68;;;12.50;97.00;;;;;;5051518;28;20624;-63
2022/05/06 03:33:55;;;;;;;11.27;6.68;;;12.50;97.20;;;;;;5051865;28;20206;-63
2022/05/06 03:36:22;;;;;;;9.45;6.03;;;12.50;97.30;;;;;;5051794;28;20183;-64
2022/05/06 03:38:50;;;;;;;6.30;4.85;;;12.50;97.50;;;;;;5051654;28;20186;-63
2022/05/06 03:41:17;;;;;;;6.00;4.63;;;12.50;97.40;;;;;;5051269;28;20583;-64
2022/05/06 03:43:44;;;;;;;6.03;4.93;;;12.50;97.60;;;;;;5051616;28;20625;-63
2022/05/06 03:46:11;;;;;;;7.30;5.80;;;12.50;97.80;;;;;;5054857;28;20244;-64
2022/05/06 03:48:40;;;;;;;6.28;5.47;;;12.50;97.90;;;;;;5055408;28;20225;-64
2022/05/06 03:51:24;;;;;;;6.47;5.25;;;12.50;98.20;;;;;;5055234;28;20224;-63
2022/05/06 03:53:52;;;;;;;7.47;4.80;;;12.50;98.10;;;;;;5055560;28;20252;-63
2022/05/06 03:56:24;;;;;;;5.82;4.78;;;12.40;97.80;;;;;;5054787;28;20274;-64
2022/05/06 03:58:52;;;;;;;6.63;5.10;;;12.40;98.00;;;;;;5055893;28;20236;-64
2022/05/06 04:01:20;;;;;;;4.88;4.35;;;12.40;98.00;;;;;;5055310;28;20214;-64
2022/05/06 04:03:50;;;;;;;4.63;3.97;;;12.40;98.10;;;;;;5055934;28;20222;-63
2022/05/06 04:06:17;;;;;;;5.13;4.10;;;12.40;98.20;;;;;;5055425;28;20436;-63
2022/05/06 04:08:45;;;;;;;6.10;4.38;;;12.40;98.10;;;;;;5055441;28;20198;-64
2022/05/06 04:11:12;;;;;;;7.20;4.70;;;12.40;98.20;;;;;;5055360;28;20187;-64
2022/05/06 04:13:40;;;;;;;6.93;4.80;;;12.40;98.20;;;;;;5055682;28;20187;-64
2022/05/06 04:16:08;;;;;;;6.57;4.63;;;12.40;98.20;;;;;;5055055;28;20304;-63
2022/05/06 04:18:35;;;;;;;6.07;5.30;;;12.30;98.20;;;;;;5055847;28;20190;-64
2022/05/06 04:23:49;;;;;;;6.93;5.43;;;12.30;98.80;;;;;;5055375;28;20244;-64
2022/05/06 04:26:16;;;;;;;6.72;5.88;;;12.30;98.70;;;;;;5054932;28;20189;-64
2022/05/06 04:28:44;;;;;;;5.78;4.93;;;12.30;98.60;;;;;;5055455;28;20190;-63
2022/05/06 04:31:12;;;;;;;6.63;4.90;;;12.30;98.60;;;;;;5054475;28;20190;-63
2022/05/06 04:33:40;;;;;;;7.57;5.40;;;12.40;98.40;;;;;;5055265;28;20664;-64
2022/05/06 04:36:11;;;;;;;5.75;4.95;;;12.40;98.60;;;;;;5054970;28;20187;-64
2022/05/06 04:38:38;;;;;;;6.88;6.18;;;12.40;98.50;;;;;;5053779;28;20218;-64
2022/05/06 04:41:05;;;;;;;6.15;4.75;;;12.50;98.40;;;;;;5041979;28;20260;-64
2022/05/06 04:43:33;;;;;;;5.53;4.90;;;12.50;98.60;;;;;;5039338;28;20210;-64
2022/05/06 04:46:00;;;;;;;6.93;5.13;;;12.50;98.60;;;;;;5050374;28;20276;-63
2022/05/06 04:48:29;;;;;;;6.22;5.20;;;12.50;98.60;;;;;;5052478;28;20194;-65
2022/05/06 04:50:56;;;;;;;5.63;4.68;;;12.50;98.50;;;;;;5053739;28;20198;-63
2022/05/06 04:53:24;;;;;;;6.25;5.25;;;12.50;98.50;;;;;;5052137;28;20285;-64
2022/05/06 04:55:51;;;;;;;6.30;4.72;;;12.60;98.50;;;;;;5052441;28;20222;-64
2022/05/06 04:58:18;;;;;;;5.72;5.13;;;12.60;98.60;;;;;;5052095;28;20229;-64
2022/05/06 05:00:45;;;;;;;6.53;4.70;;;12.60;98.50;;;;;;5053443;28;20566;-64
2022/05/06 05:03:13;;;;;;;5.83;5.20;;;12.60;98.40;;;;;;5052860;28;20197;-65
2022/05/06 05:05:40;;;;;;;5.85;4.75;;;12.60;98.40;;;;;;5053645;28;20464;-64
2022/05/06 05:08:09;;;;;;;8.90;6.13;;;12.70;98.30;;;;;;5051643;28;20208;-64
2022/05/06 05:10:37;;;;;;;7.32;6.50;;;12.70;98.10;;;;;;5053424;28;20194;-65
2022/05/06 05:13:05;;;;;;;8.15;6.10;;;12.70;98.10;;;;;;5052748;28;20281;-64
2022/05/06 05:15:32;;;;;;;9.40;6.55;;;12.70;97.90;;;;;;5052888;28;20210;-64
2022/05/06 05:17:59;;;;;;;6.93;6.10;;;12.70;98.00;;;;;;5052599;28;20635;-63
2022/05/06 05:20:26;;;;;;;7.55;5.90;;;12.70;98.40;;;;;;5051089;28;20711;-63
2022/05/06 05:22:53;;;;;;;7.85;6.78;;;12.70;98.50;;;;;;5052787;28;20281;-64
2022/05/06 05:25:20;;;;;;;9.55;6.40;;;12.80;98.40;;;;;;5050663;28;20199;-64
2022/05/06 05:27:48;;;;;;;10.10;6.80;;;12.80;98.60;;;;;;5052795;28;20659;-63
2022/05/06 05:30:15;;;;;;;7.50;6.05;;;12.80;98.60;;;;;;5051791;28;20233;-63
2022/05/06 05:32:42;;;;;;;10.27;6.80;;;12.90;98.40;;;;;;5052667;28;20530;-63
2022/05/06 05:35:10;;;;;;;10.30;7.93;;;12.90;98.70;;;;;;5051101;28;20200;-65
2022/05/06 05:37:37;;;;;;;15.83;10.23;;;13.00;98.70;;;;;;5052688;28;20270;-64
2022/05/06 05:40:05;;;;;;;12.98;9.35;;;13.00;98.50;;;;;;5052216;28;20445;-64
2022/05/06 05:42:32;;;;;;;11.40;8.05;;;13.10;98.20;;;;;;5052587;28;20545;-65
2022/05/06 05:50:29;;;;;;;8.50;7.00;;;13.10;97.50;;;;;;5051592;28;20209;-64
2022/05/06 05:52:57;;;;;;;9.93;6.90;;;13.20;97.90;;;;;;5049623;28;20524;-65
2022/05/06 05:55:24;;;;;;;10.20;6.10;;;13.20;97.80;;;;;;5046695;28;20187;-64
2022/05/06 05:57:50;;;;;;;7.53;6.27;;;13.30;97.50;;;;;;5051980;28;20444;-64
2022/05/06 06:00:19;;;;;;;8.63;7.67;;;13.30;97.20;;;;;;5051944;28;20499;-64
2022/05/06 06:02:46;;;;;;;8.30;7.00;;;13.20;97.00;;;;;;5051471;28;20548;-64
2022/05/06 06:05:13;;;;;;;9.05;7.57;;;13.20;97.40;;;;;;5051416;28;20445;-64
2022/05/06 06:07:40;;;;;;;7.57;6.73;;;13.30;97.90;;;;;;5050754;28;21563;-65
2022/05/06 06:10:08;;;;;;;6.97;5.67;;;13.30;97.70;;;;;;5051701;28;20433;-64
2022/05/06 06:12:36;;;;;;;6.57;5.73;;;13.50;97.50;;;;;;5051510;28;20523;-65
2022/05/06 06:15:03;;;;;;;8.20;6.20;;;13.60;97.50;;;;;;5051837;28;20429;-64
2022/05/06 06:17:31;;;;;;;7.40;6.60;;;13.70;97.20;;;;;;5051871;28;20539;-66
2022/05/06 06:19:58;;;;;;;6.10;5.47;;;13.80;97.30;;;;;;5051156;28;20490;-64
2022/05/06 06:22:25;;;;;;;8.20;7.40;;;14.00;97.10;;;;;;5051305;28;20572;-64
2022/05/06 06:24:52;;;;;;;7.13;6.30;;;14.10;96.40;;;;;;5051529;28;20523;-64
2022/05/06 06:27:19;;;;;;;6.67;5.40;;;14.10;96.00;;;;;;5051697;28;20480;-64
2022/05/06 06:29:49;;;;;;;5.33;4.63;;;14.10;96.10;;;;;;5051293;28;20447;-64
2022/05/06 06:32:16;;;;;;;6.40;5.23;;;14.20;96.30;;;;;;5046628;28;20776;-64
2022/05/06 06:34:45;;;;;;;8.10;5.40;;;14.20;95.30;;;;;;5051311;28;20491;-64
2022/05/06 06:37:13;;;;;;;5.80;5.20;;;14.30;95.40;;;;;;5052528;28;20467;-64
2022/05/06 06:39:40;;;;;;;6.97;5.60;;;14.30;95.10;;;;;;5053117;28;20433;-64
2022/05/06 06:42:08;;;;;;;5.30;4.63;;;14.30;94.90;;;;;;5052126;28;20480;-65
2022/05/06 06:44:35;;;;;;;5.50;4.90;;;14.40;94.90;;;;;;5052768;28;20477;-65
2022/05/06 06:47:08;;;;;;;6.17;4.73;;;14.50;95.00;;;;;;5052963;28;20460;-64
2022/05/06 06:49:35;;;;;;;5.60;4.87;;;14.60;95.30;;;;;;5052933;28;20840;-65
2022/05/06 06:52:04;;;;;;;6.87;4.50;;;14.80;95.50;;;;;;5052907;28;20447;-64
2022/05/06 06:54:31;;;;;;;5.07;3.60;;;14.80;95.40;;;;;;5052790;28;20449;-63
2022/05/06 06:56:58;;;;;;;5.90;4.60;;;14.90;94.60;;;;;;5052597;28;20444;-64
2022/05/06 06:59:25;;;;;;;4.90;3.00;;;15.00;94.30;;;;;;5052763;28;20511;-63
2022/05/06 07:01:52;;;;;;;6.33;4.63;;;15.10;94.00;;;;;;5052509;28;20935;-64
2022/05/06 07:04:18;;;;;;;4.53;3.30;;;15.20;93.70;;;;;;5052600;28;20494;-64
2022/05/06 07:12:30;;;;;;;4.73;3.70;;;15.20;91.30;;;;;;4991560;28;20450;-63
2022/05/06 07:14:57;;;;;;;3.43;2.27;;;15.10;91.10;;;;;;5025774;28;20447;-64
2022/05/06 07:17:24;;;;;;;3.70;2.97;;;15.10;91.50;;;;;;5052592;28;20528;-64
2022/05/06 07:19:51;;;;;;;3.30;2.60;;;15.10;91.50;;;;;;5051923;28;20455;-64
2022/05/06 07:22:18;;;;;;;4.17;3.17;;;15.20;91.80;;;;;;5052443;28;20477;-64
2022/05/06 07:24:47;;;;;;;3.40;2.90;;;15.20;91.80;;;;;;5052384;28;20441;-65
2022/05/06 07:27:14;;;;;;;4.33;3.43;;;15.30;92.30;;;;;;5052457;28;20523;-64
2022/05/06 07:29:41;;;;;;;3.50;2.70;;;15.30;92.40;;;;;;5052292;28;20433;-63
2022/05/06 07:32:09;;;;;;;4.60;2.83;;;15.40;91.90;;;;;;5052460;28;20510;-64
2022/05/06 07:34:36;;;;;;;4.03;2.90;;;15.40;90.90;;;;;;5052724;28;20429;-64
2022/05/06 07:37:04;;;;;;;3.13;2.40;;;15.40;91.00;;;;;;5052523;28;20441;-64
2022/05/06 07:39:31;;;;;;;3.80;2.87;;;15.30;90.80;;;;;;5052361;28;20498;-64
2022/05/06 07:42:00;;;;;;;3.30;2.80;;;15.30;90.30;;;;;;5052120;28;20489;-63
2022/05/06 07:44:28;;;;;;;2.77;1.90;;;15.30;90.70;;;;;;5052149;28;20993;-64
2022/05/06 07:46:55;;;;;;;4.60;3.27;;;15.30;91.20;;;;;;5051908;28;20555;-64
2022/05/06 07:49:23;;;;;;;3.40;2.53;;;15.30;91.00;;;;;;5052199;28;21042;-64
2022/05/06 07:51:50;;;;;;;4.33;2.57;;;15.40;91.70;;;;;;5052289;28;20437;-64
2022/05/06 07:54:18;;;;;;;3.77;2.93;;;15.50;91.80;;;;;;5052072;28;20946;-64
2022/05/06 07:56:45;;;;;;;2.90;1.80;;;15.50;91.40;;;;;;5052176;28;20798;-65
2022/05/06 07:59:13;;;;;;;3.40;2.10;;;15.50;91.60;;;;;;5052249;28;20480;-63
2022/05/06 08:04:37;;;;;;;3.50;2.20;;;15.60;91.50;;;;;;5050621;28;20570;-64
2022/05/06 08:07:05;;;;;;;3.33;2.43;;;15.60;91.50;;;;;;5050965;28;21047;-64
2022/05/06 08:09:32;;;;;;;2.40;1.80;;;15.60;91.40;;;;;;5050671;28;21029;-64
2022/05/06 08:11:59;;;;;;;3.37;1.93;;;15.60;91.50;;;;;;5047659;28;20491;-64
2022/05/06 08:14:28;;;;;;;3.83;2.10;;;15.50;91.90;;;;;;5050754;28;20494;-64
2022/05/06 08:16:55;;;;;;;4.97;2.67;;;15.60;91.70;;;;;;5050687;28;20449;-64
2022/05/06 08:19:22;;;;;;;4.27;3.43;;;15.60;91.70;;;;;;5050454;28;20445;-64
2022/05/06 08:21:49;;;;;;;4.50;3.80;;;15.50;92.00;;;;;;5050527;28;20579;-64
2022/05/06 08:24:16;;;;;;;5.07;4.33;;;15.50;92.60;;;;;;5050818;28;20437;-65
2022/05/06 08:26:43;;;;;;;5.00;4.50;;;15.50;93.00;;;;;;5050767;28;20519;-64
2022/05/06 08:29:11;;;;;;;5.20;3.60;;;15.50;92.90;;;;;;5050760;28;20523;-64
2022/05/06 08:31:39;;;;;;;5.63;4.00;;;15.50;92.40;;;;;;5051257;28;20540;-65
2022/05/06 08:34:08;;;;;;;5.73;3.40;;;15.40;92.40;;;;;;5054368;28;20441;-64
2022/05/06 08:36:36;;;;;;;4.13;3.33;;;15.40;92.30;;;;;;5054635;28;20441;-64
2022/05/06 08:39:03;;;;;;;3.93;3.40;;;15.40;92.30;;;;;;5054184;28;20856;-64
2022/05/06 08:41:30;;;;;;;3.10;2.60;;;15.30;92.40;;;;;;5053513;28;20531;-64
2022/05/06 08:50:50;;;;;;;4.90;3.30;;;15.30;92.60;;;;;;5054062;28;20433;-64
2022/05/06 08:52:33;;;;;;;2.80;1.90;;;15.20;92.90;;;;;;5049213;28;20506;-64
2022/05/06 08:55:01;;;;;;;2.40;1.60;;;15.20;93.10;;;;;;5053986;28;20440;-64
2022/05/06 08:57:28;;;;;;;2.47;1.50;;;15.10;92.40;;;;;;5053899;28;20441;-64
2022/05/06 08:59:55;;;;;;;2.00;1.30;;;15.10;92.60;;;;;;5053632;28;20447;-64
2022/05/06 09:02:23;;;;;;;2.00;1.40;;;15.10;92.30;;;;;;5053715;28;20588;-64
2022/05/06 09:04:50;;;;;;;2.27;1.60;;;15.20;92.80;;;;;;5053683;28;20547;-64
2022/05/06 09:07:20;;;;;;;1.90;1.17;;;15.30;93.50;;;;;;5053628;28;20448;-64
2022/05/06 09:10:13;;;;;;;4.20;1.50;;;15.40;93.50;;;;;;5053704;28;20444;-64
2022/05/06 09:12:44;;;;;;;3.50;1.33;;;15.60;92.20;;;;;;5053640;28;20953;-64
2022/05/06 09:17:57;;;;;;;2.50;1.50;;;16.00;91.50;;;;;;5053619;28;20776;-64
2022/05/06 09:20:26;;;;;;;2.40;1.70;;;16.20;91.60;;;;;;5052987;28;20527;-64
2022/05/06 09:22:53;;;;;;;2.73;1.87;;;16.40;91.90;;;;;;5053090;28;20484;-64
2022/05/06 09:25:36;;;;;;;3.00;1.93;;;16.40;90.80;;;;;;5053359;28;20480;-64
2022/05/06 09:28:04;;;;;;;2.40;1.43;;;16.40;90.50;;;;;;5053306;28;20830;-64
2022/05/06 09:30:31;;;;;;;3.00;2.10;;;16.50;90.50;;;;;;5052891;28;20445;-64
2022/05/06 09:33:00;;;;;;;2.70;1.83;;;16.40;90.40;;;;;;5053164;28;20455;-64
2022/05/06 09:35:28;;;;;;;3.03;2.57;;;16.40;90.00;;;;;;5053143;28;20443;-64
2022/05/06 09:37:55;;;;;;;3.67;2.53;;;16.40;90.30;;;;;;5052978;28;20527;-64
2022/05/06 09:40:28;;;;;;;3.50;3.00;;;16.40;89.80;;;;;;5052527;28;20464;-65
2022/05/06 09:42:59;;;;;;;3.50;2.63;;;16.20;90.00;;;;;;5052300;28;20520;-64
2022/05/06 09:45:30;;;;;;;3.30;2.50;;;16.10;90.20;;;;;;5052804;28;20444;-64
2022/05/06 09:47:59;;;;;;;4.37;3.90;;;16.00;90.40;;;;;;5013315;28;21019;-64
2022/05/06 09:50:33;;;;;;;3.80;2.90;;;15.90;90.60;;;;;;5012921;28;20541;-64
2022/05/06 09:53:01;;;;;;;5.07;3.00;;;15.70;90.80;;;;;;5013350;28;20537;-64
2022/05/06 09:55:29;;;;;;;3.77;2.80;;;15.70;91.10;;;;;;5013289;28;20447;-64
2022/05/06 09:57:57;;;;;;;3.53;2.83;;;15.60;91.60;;;;;;5011213;28;20450;-64
2022/05/06 10:00:25;;;;;;;5.40;4.30;;;15.50;91.80;;;;;;5014053;28;20450;-64
2022/05/06 10:02:53;;;;;;;7.00;5.57;;;15.40;92.10;;;;;;5013932;28;20529;-64
2022/05/06 10:05:21;;;;;;;5.93;4.67;;;15.40;92.30;;;;;;5014322;28;20447;-64
2022/05/06 10:07:49;;;;;;;6.03;5.00;;;15.40;92.50;;;;;;5013886;28;20447;-64
2022/05/06 10:10:23;;;;;;;4.33;3.73;;;15.30;92.80;;;;;;5014066;28;20461;-64
2022/05/06 10:12:55;;;;;;;7.00;3.60;;;15.30;93.10;;;;;;5013894;28;20442;-64
2022/05/06 10:15:25;;;;;;;3.67;3.10;;;15.30;93.00;;;;;;5013858;28;20529;-64
2022/05/06 10:17:54;;;;;;;3.90;3.33;;;15.20;92.90;;;;;;5013777;28;20852;-64
2022/05/06 10:21:01;;;;;;;3.80;3.23;;;15.20;93.30;;;;;;5013813;28;20530;-64
2022/05/06 10:23:46;;;;;;;3.70;2.97;;;15.20;93.70;;;;;;5013734;28;20524;-63
2022/05/06 10:26:45;;;;;;;4.50;3.60;;;15.20;93.50;;;;;;5013518;28;20443;-63
2022/05/06 10:32:54;;;;;;;4.93;4.40;;;15.30;94.00;;;;;;5013624;28;20883;-63
2022/05/06 10:35:37;;;;;;;5.97;3.93;;;15.30;94.40;;;;;;5005546;28;20450;-64
2022/05/06 10:38:17;;;;;;;8.53;4.50;;;15.30;93.90;;;;;;5013684;28;20556;-64
2022/05/06 10:40:54;;;;;;;5.37;3.70;;;15.30;93.50;;;;;;5012779;28;20514;-64
2022/05/06 10:44:00;;;;;;;3.80;3.00;;;15.40;93.60;;;;;;5013266;28;20481;-64
2022/05/06 10:46:39;;;;;;;4.27;3.30;;;15.40;93.50;;;;;;5025386;28;20971;-64
2022/05/06 10:49:52;;;;;;;4.00;3.60;;;15.40;93.00;;;;;;5053003;28;20429;-65
2022/05/06 10:52:41;;;;;;;5.43;4.13;;;15.40;92.60;;;;;;5052458;28;20790;-64
2022/05/06 10:55:10;;;;;;;4.47;3.37;;;15.30;93.00;;;;;;5051743;28;20469;-64
2022/05/06 10:58:00;;;;;;;7.13;3.47;;;15.30;93.50;;;;;;5052331;28;20949;-64
2022/05/06 11:00:29;;;;;;;8.37;3.70;;;15.40;92.90;;;;;;5052838;28;20449;-64
2022/05/06 11:02:59;;;;;;;4.77;3.23;;;15.40;92.80;;;;;;5052129;28;20473;-64
2022/05/06 11:05:29;;;;;;;3.33;2.80;;;15.40;92.50;;;;;;5052624;28;20495;-64
2022/05/06 11:08:01;;;;;;;4.20;3.60;;;15.40;92.40;;;;;;5052313;28;20495;-64
2022/05/06 11:10:30;;;;;;;5.17;3.50;;;15.40;92.60;;;;;;5052845;28;20493;-63
2022/05/06 11:12:59;;;;;;;4.00;2.90;;;15.50;92.70;;;;;;5051892;28;21013;-63
2022/05/06 11:15:29;;;;;;;4.70;2.90;;;15.40;92.00;;;;;;5052410;28;20516;-63
2022/05/06 11:17:58;;;;;;;3.70;3.10;;;15.30;91.90;;;;;;5051984;28;20516;-64
2022/05/06 11:20:27;;;;;;;4.50;4.00;;;15.30;92.40;;;;;;5052465;28;20951;-63
2022/05/06 11:22:57;;;;;;;4.50;4.00;;;15.30;92.80;;;;;;5051585;28;20499;-63
2022/05/06 11:25:25;;;;;;;5.00;4.50;;;15.40;93.10;;;;;;5052054;28;20825;-63
2022/05/06 11:27:53;;;;;;;5.00;3.90;;;15.40;93.40;;;;;;5052092;28;20513;-64
2022/05/06 11:30:23;;;;;;;9.53;4.90;;;15.40;93.40;;;;;;5051876;28;20799;-64
2022/05/06 11:32:53;;;;;;;4.63;3.70;;;15.40;93.90;;;;;;5032677;28;20532;-64
2022/05/06 11:35:36;;;;;;;5.60;4.40;;;15.50;94.20;;;;;;5032748;28;20533;-64
2022/05/06 11:38:03;;;;;;;5.70;3.93;;;15.50;93.70;;;;;;5031369;28;20448;-64
2022/05/06 11:40:36;;;;;;;4.90;4.07;;;15.50;93.80;;;;;;5032871;28;20441;-63
2022/05/06 11:43:22;;;;;;;4.30;3.50;;;15.50;94.00;;;;;;5032660;28;20486;-63
2022/05/06 11:48:43;;;;;;;5.10;3.80;;;15.50;93.90;;;;;;5033061;28;20421;-68
2022/05/06 11:51:12;;;;;;;6.23;3.90;;;15.50;94.00;;;;;;5032780;28;20824;-64
2022/05/06 11:53:40;;;;;;;4.33;3.60;;;15.50;93.70;;;;;;5032858;28;20768;-64
2022/05/06 11:56:11;;;;;;;6.27;3.43;;;15.50;93.60;;;;;;5032756;28;20434;-64
2022/05/06 11:58:39;;;;;;;5.80;5.30;;;15.50;93.80;;;;;;5032797;28;20449;-64
2022/05/06 12:01:09;;;;;;;6.07;4.47;;;15.50;94.10;;;;;;5032324;28;20442;-64
2022/05/06 12:03:37;;;;;;;4.80;3.40;;;15.50;94.00;;;;;;5032028;28;21125;-64
2022/05/06 12:06:06;;;;;;;4.90;4.10;;;15.50;94.20;;;;;;5034574;28;20469;-65
2022/05/06 12:08:34;;;;;;;4.30;3.53;;;15.50;94.20;;;;;;5036352;28;20472;-64
2022/05/06 12:11:04;;;;;;;4.50;3.30;;;15.60;94.00;;;;;;5035998;28;20495;-64
2022/05/06 12:13:36;;;;;;;4.33;3.73;;;15.60;94.10;;;;;;5036257;28;20449;-64
2022/05/06 12:16:09;;;;;;;4.67;4.20;;;15.60;94.20;;;;;;5036132;28;20500;-63
2022/05/06 12:18:38;;;;;;;4.53;4.10;;;15.50;94.10;;;;;;5035961;28;20831;-64
2022/05/06 12:21:27;;;;;;;4.00;3.37;;;15.50;94.00;;;;;;5036234;28;20445;-63
2022/05/06 12:23:56;;;;;;;4.40;3.90;;;15.50;94.00;;;;;;5035863;28;20485;-63
2022/05/06 12:26:34;;;;;;;5.30;3.80;;;15.50;93.90;;;;;;5035989;28;20495;-63
2022/05/06 12:29:03;;;;;;;7.93;4.00;;;15.40;94.20;;;;;;5035973;28;20533;-64
2022/05/06 12:31:33;;;;;;;9.60;3.67;;;15.40;94.60;;;;;;5035853;28;20473;-64
2022/05/06 12:34:06;;;;;;;4.97;4.33;;;15.40;95.00;;;;;;5035843;28;20537;-63
2022/05/06 12:36:33;;;;;;;6.53;3.67;;;15.40;95.20;;;;;;5036025;28;20438;-64
2022/05/06 12:39:00;;;;;;;5.50;4.33;;;15.40;95.30;;;;;;5035531;28;20530;-64
2022/05/06 12:41:33;;;;;;;4.00;3.40;;;15.40;95.20;;;;;;5035393;28;20526;-65
2022/05/06 12:44:16;;;;;;;5.43;4.53;;;15.40;95.70;;;;;;5035577;28;20481;-63
2022/05/06 12:46:45;;;;;;;5.10;4.50;;;15.50;95.80;;;;;;5035246;28;20461;-64
2022/05/06 12:51:53;;;;;;;5.60;4.40;;;15.70;96.30;;;;;;5026429;28;20434;-64
2022/05/06 12:54:22;;;;;;;5.57;4.70;;;15.90;96.50;;;;;;5035325;28;20503;-65
2022/05/06 12:56:49;;;;;;;7.50;5.70;;;16.00;96.30;;;;;;5035146;28;20441;-65
2022/05/06 12:59:16;;;;;;;8.00;7.03;;;16.00;95.60;;;;;;5035386;28;20517;-64
2022/05/06 13:01:45;;;;;;;8.60;6.33;;;16.00;94.80;;;;;;5035152;28;20948;-64
2022/05/06 13:04:12;;;;;;;8.03;7.23;;;15.90;94.80;;;;;;5035207;28;20495;-65
2022/05/06 13:06:39;;;;;;;7.90;6.90;;;15.90;95.30;;;;;;5048222;28;20444;-64
2022/05/06 13:09:06;;;;;;;10.50;9.03;;;15.90;95.00;;;;;;5053275;28;20436;-64
2022/05/06 13:11:33;;;;;;;13.40;11.50;;;15.90;94.90;;;;;;5054489;28;20433;-64
2022/05/06 13:14:00;;;;;;;12.87;11.50;;;15.90;94.60;;;;;;5054979;28;20525;-64
2022/05/06 13:16:27;;;;;;;12.53;11.23;;;15.90;94.40;;;;;;5054231;28;20429;-63
2022/05/06 13:18:56;;;;;;;12.73;10.83;;;15.90;94.30;;;;;;5054327;28;20523;-64
2022/05/06 13:21:23;;;;;;;15.10;12.60;;;15.90;94.50;;;;;;5054757;28;20519;-64
2022/05/06 13:23:49;;;;;;;15.00;12.80;;;15.90;94.40;;;;;;5054787;28;20503;-64
2022/05/06 13:26:17;;;;;;;15.87;13.83;;;15.90;94.80;;;;;;5054658;28;20923;-64
2022/05/06 13:28:44;;;;;;;16.70;13.80;;;15.90;94.70;;;;;;5054684;28;20437;-64
2022/05/06 13:31:13;;;;;;;15.93;14.03;;;15.90;94.30;;;;;;5054681;28;20472;-64
2022/05/06 13:33:40;;;;;;;16.30;14.47;;;15.90;93.90;;;;;;5054604;28;20549;-64
2022/05/06 13:36:09;;;;;;;15.93;14.23;;;15.80;93.70;;;;;;5054617;28;20473;-64